Time;durP1;ratioP1;P1;durP2;ratioP2;P2;SDS_P1;SDS_P2;PMS_P1;PMS_P2;Temp;Humidity;BMP_temperature;BMP_pressure;BME280_temperature;BME280_humidity;BME280_pressure;Samples;Min_cycle;Max_cycle;Signal;HPM_P1;HPM_P2
2021/07/09 00:01:48;;;;;;;0.90;0.80;;;24.30;61.00;;;;;;5056431;28;20094;-43
2021/07/09 00:04:15;;;;;;;1.63;0.70;;;24.30;60.90;;;;;;5052248;28;20128;-55
2021/07/09 00:06:42;;;;;;;1.25;0.85;;;24.30;60.90;;;;;;5068746;28;20028;-43
2021/07/09 00:09:07;;;;;;;2.83;0.80;;;24.30;60.70;;;;;;5070934;28;20139;-42
2021/07/09 00:11:36;;;;;;;1.27;0.85;;;24.30;60.70;;;;;;5062969;28;20100;-42
2021/07/09 00:14:02;;;;;;;2.70;0.90;;;24.30;60.70;;;;;;5061045;28;20028;-43
2021/07/09 00:16:28;;;;;;;2.55;1.02;;;24.40;60.70;;;;;;5053429;28;20112;-45
2021/07/09 00:18:53;;;;;;;1.02;0.90;;;24.40;60.70;;;;;;5070030;28;20111;-42
2021/07/09 00:21:19;;;;;;;1.10;0.70;;;24.30;60.50;;;;;;5055956;28;20032;-42
2021/07/09 00:23:45;;;;;;;1.67;0.75;;;24.40;60.70;;;;;;5059840;28;20453;-42
2021/07/09 00:26:12;;;;;;;1.35;0.77;;;24.30;60.50;;;;;;5057792;28;20497;-47
2021/07/09 00:28:39;;;;;;;1.33;0.73;;;24.40;60.60;;;;;;5058969;28;20157;-42
2021/07/09 00:31:05;;;;;;;1.33;0.80;;;24.40;60.60;;;;;;5054613;28;20032;-43
2021/07/09 00:33:31;;;;;;;3.58;0.85;;;24.30;60.50;;;;;;5063556;28;20025;-42
2021/07/09 00:35:56;;;;;;;2.67;1.15;;;24.40;60.60;;;;;;5061197;28;20032;-42
2021/07/09 00:38:22;;;;;;;1.25;0.60;;;24.30;60.50;;;;;;5069264;28;20493;-42
2021/07/09 00:40:47;;;;;;;2.53;0.93;;;24.40;60.60;;;;;;5054252;28;20029;-42
2021/07/09 00:43:13;;;;;;;2.75;1.63;;;24.40;60.50;;;;;;5066669;28;20390;-42
2021/07/09 00:45:39;;;;;;;2.75;1.05;;;24.40;60.50;;;;;;5057836;28;20472;-42
2021/07/09 00:48:05;;;;;;;2.78;0.80;;;24.40;60.50;;;;;;5069378;28;20427;-43
2021/07/09 00:50:31;;;;;;;1.40;0.73;;;24.40;60.50;;;;;;5061275;28;20087;-43
2021/07/09 00:52:57;;;;;;;1.30;0.95;;;24.40;60.40;;;;;;5051373;28;20459;-45
2021/07/09 00:55:22;;;;;;;2.80;0.90;;;24.40;60.50;;;;;;5060038;28;20029;-42
2021/07/09 00:57:52;;;;;;;3.28;0.98;;;24.40;60.50;;;;;;5067519;28;20079;-45
2021/07/09 01:00:20;;;;;;;1.23;0.93;;;24.40;60.50;;;;;;5054328;28;20044;-55
2021/07/09 01:02:46;;;;;;;1.40;0.93;;;24.30;60.50;;;;;;5063627;28;20029;-42
2021/07/09 01:05:13;;;;;;;1.60;0.90;;;24.30;60.60;;;;;;5067433;28;20029;-42
2021/07/09 01:07:39;;;;;;;0.90;0.68;;;24.30;60.60;;;;;;5052151;28;20036;-46
2021/07/09 01:10:12;;;;;;;1.85;0.90;;;24.30;60.50;;;;;;5066653;28;20036;-42
2021/07/09 01:12:39;;;;;;;3.05;0.90;;;24.40;60.60;;;;;;5059499;28;20683;-42
2021/07/09 01:15:07;;;;;;;2.63;0.88;;;24.30;60.50;;;;;;5052460;28;20040;-45
2021/07/09 01:17:32;;;;;;;2.92;1.05;;;24.30;60.50;;;;;;5058859;28;20033;-42
2021/07/09 01:20:00;;;;;;;1.00;0.90;;;24.30;60.50;;;;;;5054687;28;20107;-42
2021/07/09 01:22:27;;;;;;;1.90;0.80;;;24.30;60.50;;;;;;5067460;28;20024;-42
2021/07/09 01:24:53;;;;;;;4.95;1.15;;;24.30;60.50;;;;;;5069452;28;20036;-43
2021/07/09 01:27:19;;;;;;;1.38;1.00;;;24.30;60.60;;;;;;5062395;28;20021;-55
2021/07/09 01:29:45;;;;;;;1.95;0.98;;;24.30;60.60;;;;;;5062004;28;20037;-42
2021/07/09 01:32:12;;;;;;;1.63;1.00;;;24.30;60.60;;;;;;5064240;28;20032;-42
2021/07/09 01:34:38;;;;;;;1.58;1.00;;;24.30;60.50;;;;;;5064700;28;20247;-45
2021/07/09 01:37:15;;;;;;;2.88;1.08;;;24.30;60.50;;;;;;5072737;28;20056;-43
2021/07/09 01:39:42;;;;;;;2.47;0.90;;;24.30;60.50;;;;;;5075503;28;20032;-42
2021/07/09 01:42:08;;;;;;;1.95;1.08;;;24.30;60.50;;;;;;5065213;28;20027;-44
2021/07/09 01:44:36;;;;;;;1.00;0.82;;;24.30;60.50;;;;;;5054864;28;20470;-42
2021/07/09 01:47:03;;;;;;;1.13;0.90;;;24.30;60.50;;;;;;5057240;28;20036;-42
2021/07/09 01:49:28;;;;;;;1.65;0.80;;;24.30;60.50;;;;;;5069307;28;20382;-46
2021/07/09 01:51:55;;;;;;;2.13;0.98;;;24.30;60.50;;;;;;5065752;28;20029;-45
2021/07/09 01:54:21;;;;;;;2.00;0.95;;;24.30;60.30;;;;;;5067663;28;20064;-46
2021/07/09 01:56:46;;;;;;;2.13;1.00;;;24.30;60.30;;;;;;5066388;28;20055;-43
2021/07/09 01:59:12;;;;;;;1.67;0.80;;;24.30;60.20;;;;;;5070993;28;20146;-45
2021/07/09 02:01:38;;;;;;;3.42;1.30;;;24.30;60.30;;;;;;5064151;28;20108;-42
2021/07/09 02:04:03;;;;;;;1.65;1.00;;;24.30;60.40;;;;;;5072037;28;20462;-43
2021/07/09 02:06:29;;;;;;;1.65;1.00;;;24.20;60.40;;;;;;5038209;28;20029;-43
2021/07/09 02:08:55;;;;;;;1.25;1.00;;;24.30;60.40;;;;;;5072916;28;20792;-44
2021/07/09 02:11:20;;;;;;;1.98;1.08;;;24.30;60.30;;;;;;5057530;28;20029;-54
2021/07/09 02:13:46;;;;;;;2.20;1.27;;;24.30;60.30;;;;;;5071050;28;20028;-43
2021/07/09 02:16:12;;;;;;;1.40;1.00;;;24.30;60.20;;;;;;5063981;28;20094;-42
2021/07/09 02:18:37;;;;;;;1.10;0.70;;;24.30;60.10;;;;;;5065610;28;20033;-42
2021/07/09 02:21:03;;;;;;;0.88;0.88;;;24.30;60.10;;;;;;5064978;28;20028;-42
2021/07/09 02:23:29;;;;;;;2.90;0.93;;;24.30;60.20;;;;;;5063749;28;20040;-46
2021/07/09 02:25:54;;;;;;;1.92;0.93;;;24.30;60.20;;;;;;5062185;28;20029;-46
2021/07/09 02:28:20;;;;;;;2.55;1.10;;;24.20;60.80;;;;;;5060819;28;20032;-54
2021/07/09 02:30:45;;;;;;;0.93;0.75;;;24.30;60.20;;;;;;5069840;28;20028;-42
2021/07/09 02:33:11;;;;;;;2.17;0.90;;;24.30;60.10;;;;;;5064481;28;20032;-42
2021/07/09 02:35:40;;;;;;;1.13;0.77;;;24.30;60.10;;;;;;5067566;28;20450;-42
2021/07/09 02:38:09;;;;;;;1.85;0.98;;;24.30;60.10;;;;;;5061387;28;20047;-42
2021/07/09 02:40:35;;;;;;;1.88;0.90;;;24.30;60.10;;;;;;5061275;28;20428;-42
2021/07/09 02:43:04;;;;;;;1.45;1.10;;;24.30;60.10;;;;;;5064886;28;20086;-42
2021/07/09 02:45:29;;;;;;;1.20;0.85;;;24.20;60.00;;;;;;5058966;28;20029;-42
2021/07/09 02:47:55;;;;;;;1.38;1.05;;;24.20;60.00;;;;;;5063195;28;20390;-44
2021/07/09 02:50:23;;;;;;;2.28;1.30;;;24.30;60.00;;;;;;5063663;28;20048;-55
2021/07/09 02:52:50;;;;;;;1.33;0.90;;;24.30;60.60;;;;;;5059831;28;20040;-42
2021/07/09 02:55:17;;;;;;;1.60;0.90;;;24.30;60.00;;;;;;5059628;28;20039;-42
2021/07/09 02:57:43;;;;;;;2.78;1.10;;;24.20;60.00;;;;;;5060165;28;20055;-49
2021/07/09 03:00:12;;;;;;;2.60;1.00;;;24.20;59.90;;;;;;5062604;28;20135;-42
2021/07/09 03:02:38;;;;;;;1.40;1.10;;;24.20;59.90;;;;;;5066462;28;20909;-42
2021/07/09 03:05:05;;;;;;;1.58;0.85;;;24.20;59.90;;;;;;5063328;28;20028;-42
2021/07/09 03:07:31;;;;;;;1.95;0.82;;;24.30;59.90;;;;;;5073853;28;20032;-46
2021/07/09 03:09:57;;;;;;;1.63;0.90;;;24.30;59.90;;;;;;5070194;28;20090;-43
2021/07/09 03:12:22;;;;;;;1.10;0.82;;;24.30;59.80;;;;;;5064414;28;20104;-55
2021/07/09 03:14:48;;;;;;;1.60;1.00;;;24.20;59.80;;;;;;5061084;28;20428;-43
2021/07/09 03:17:14;;;;;;;0.93;0.85;;;24.20;59.80;;;;;;5060524;28;20021;-43
2021/07/09 03:19:40;;;;;;;1.15;0.75;;;24.20;59.80;;;;;;5067856;28;20503;-46
2021/07/09 03:22:06;;;;;;;2.00;1.17;;;24.20;59.80;;;;;;5062803;28;20418;-43
2021/07/09 03:24:31;;;;;;;7.40;1.38;;;24.20;59.80;;;;;;5044687;28;20039;-44
2021/07/09 03:26:57;;;;;;;3.30;1.05;;;24.20;59.70;;;;;;5063414;28;20024;-42
2021/07/09 03:29:23;;;;;;;1.50;1.02;;;24.20;59.70;;;;;;5057494;28;20044;-54
2021/07/09 03:31:48;;;;;;;1.00;0.70;;;24.30;59.70;;;;;;5066471;28;20040;-43
2021/07/09 03:34:14;;;;;;;1.80;0.90;;;24.20;59.70;;;;;;5063267;28;20369;-43
2021/07/09 03:36:45;;;;;;;1.40;1.02;;;24.20;59.70;;;;;;5061548;28;20573;-43
2021/07/09 03:39:12;;;;;;;1.60;1.20;;;24.10;59.60;;;;;;5062950;28;20040;-42
2021/07/09 03:41:39;;;;;;;2.25;1.05;;;24.20;59.70;;;;;;5069100;28;20064;-44
2021/07/09 03:44:06;;;;;;;2.40;0.90;;;24.20;59.60;;;;;;5062618;28;20027;-43
2021/07/09 03:46:32;;;;;;;1.45;1.15;;;24.20;59.50;;;;;;5058165;28;20409;-43
2021/07/09 03:48:57;;;;;;;1.17;1.08;;;24.20;59.50;;;;;;5053142;28;20029;-42
2021/07/09 03:51:23;;;;;;;2.67;1.60;;;24.20;59.50;;;;;;5052420;28;20075;-55
2021/07/09 03:53:54;;;;;;;2.35;0.90;;;24.20;59.50;;;;;;5051232;28;20056;-43
2021/07/09 03:56:23;;;;;;;1.27;0.90;;;24.20;59.50;;;;;;5068421;28;20028;-43
2021/07/09 03:58:49;;;;;;;2.67;0.90;;;24.20;59.50;;;;;;5038553;28;20028;-42
2021/07/09 04:01:14;;;;;;;1.35;1.00;;;24.20;59.40;;;;;;5069693;28;20386;-42
2021/07/09 04:03:40;;;;;;;4.25;1.00;;;24.20;59.40;;;;;;5062157;28;20493;-42
2021/07/09 04:06:06;;;;;;;1.40;0.90;;;24.20;59.40;;;;;;5068440;28;20398;-42
2021/07/09 04:08:31;;;;;;;1.63;0.95;;;24.20;59.40;;;;;;5053627;28;20497;-42
2021/07/09 04:10:57;;;;;;;3.78;1.00;;;24.20;59.40;;;;;;5063090;28;20378;-43
2021/07/09 04:13:22;;;;;;;3.08;1.13;;;24.20;59.30;;;;;;5069550;28;20041;-55
2021/07/09 04:15:48;;;;;;;2.20;1.10;;;24.20;59.40;;;;;;5054455;28;20024;-42
2021/07/09 04:18:14;;;;;;;1.20;0.90;;;24.20;59.40;;;;;;5063788;28;20112;-45
2021/07/09 04:20:40;;;;;;;4.10;1.58;;;24.20;59.20;;;;;;5059507;28;20025;-43
2021/07/09 04:23:06;;;;;;;1.02;0.90;;;24.10;59.30;;;;;;5055678;28;20541;-42
2021/07/09 04:25:31;;;;;;;1.55;1.05;;;24.10;59.40;;;;;;5063482;28;20064;-42
2021/07/09 04:27:57;;;;;;;1.25;0.90;;;24.10;59.30;;;;;;5067332;28;20032;-45
2021/07/09 04:30:23;;;;;;;1.50;1.10;;;24.20;59.50;;;;;;5070144;28;20037;-55
2021/07/09 04:32:48;;;;;;;1.52;0.90;;;24.10;59.40;;;;;;5064509;28;20117;-42
2021/07/09 04:35:14;;;;;;;2.25;0.95;;;24.10;59.30;;;;;;5058160;28;20033;-42
2021/07/09 04:37:41;;;;;;;1.55;0.90;;;24.20;59.40;;;;;;5053146;28;20021;-46
2021/07/09 04:40:07;;;;;;;3.25;1.40;;;24.20;59.40;;;;;;5063219;28;20086;-42
2021/07/09 04:42:33;;;;;;;3.38;1.00;;;24.20;59.40;;;;;;5061703;28;20028;-43
2021/07/09 04:44:59;;;;;;;1.98;1.13;;;24.20;59.40;;;;;;5061756;28;20489;-43
2021/07/09 04:47:25;;;;;;;1.05;0.90;;;24.20;59.30;;;;;;5068982;28;20055;-55
2021/07/09 04:49:51;;;;;;;2.83;1.00;;;24.20;59.30;;;;;;5055670;28;20086;-52
2021/07/09 04:52:16;;;;;;;1.35;0.90;;;24.10;59.30;;;;;;5055858;28;20128;-42
2021/07/09 04:54:42;;;;;;;1.98;1.17;;;24.00;59.40;;;;;;5041739;28;20125;-42
2021/07/09 04:57:08;;;;;;;2.50;1.08;;;24.10;59.50;;;;;;5055001;28;20036;-43
2021/07/09 04:59:33;;;;;;;2.25;1.63;;;24.10;59.40;;;;;;5068313;28;20047;-42
2021/07/09 05:01:59;;;;;;;1.95;1.10;;;24.10;59.30;;;;;;5068075;28;20047;-42
2021/07/09 05:04:25;;;;;;;1.40;1.00;;;24.10;59.30;;;;;;5067586;28;20017;-55
2021/07/09 05:06:51;;;;;;;1.40;0.95;;;24.10;59.30;;;;;;5068817;28;20040;-42
2021/07/09 05:09:17;;;;;;;2.78;1.02;;;24.20;59.30;;;;;;5069628;28;20134;-43
2021/07/09 05:11:42;;;;;;;1.75;0.90;;;24.20;59.30;;;;;;5050697;28;20032;-42
2021/07/09 05:14:08;;;;;;;2.97;1.15;;;24.20;59.40;;;;;;5073312;28;20033;-42
2021/07/09 05:16:34;;;;;;;2.88;1.20;;;24.20;59.30;;;;;;5072870;28;20103;-45
2021/07/09 05:19:01;;;;;;;2.33;0.77;;;24.10;59.20;;;;;;5071707;28;20035;-42
2021/07/09 05:21:27;;;;;;;3.72;1.10;;;24.10;59.30;;;;;;5065139;28;20024;-55
2021/07/09 05:23:53;;;;;;;4.32;1.08;;;24.20;60.20;;;;;;5059240;28;20374;-42
2021/07/09 05:26:21;;;;;;;3.47;1.38;;;24.20;60.90;;;;;;5072016;28;20033;-42
2021/07/09 05:28:47;;;;;;;3.75;1.25;;;24.10;60.40;;;;;;5065650;28;20108;-42
2021/07/09 05:31:13;;;;;;;3.97;1.35;;;24.20;60.40;;;;;;5060981;28;20159;-43
2021/07/09 05:33:38;;;;;;;2.47;1.30;;;24.20;60.30;;;;;;5062174;28;20021;-43
2021/07/09 05:36:04;;;;;;;1.83;1.17;;;24.20;60.20;;;;;;5072750;28;20036;-43
2021/07/09 05:38:30;;;;;;;2.35;0.90;;;24.20;60.10;;;;;;5064811;28;20070;-45
2021/07/09 05:40:55;;;;;;;6.13;1.10;;;24.30;60.10;;;;;;5074497;28;20560;-42
2021/07/09 05:43:21;;;;;;;8.20;1.15;;;24.40;59.90;;;;;;5062977;28;20063;-46
2021/07/09 05:45:47;;;;;;;2.20;0.80;;;24.50;59.70;;;;;;5070164;28;20741;-44
2021/07/09 05:48:13;;;;;;;2.72;1.40;;;24.60;59.60;;;;;;5069406;28;20060;-45
2021/07/09 05:50:40;;;;;;;4.90;0.98;;;24.70;59.40;;;;;;5069611;28;20031;-44
2021/07/09 05:53:06;;;;;;;4.97;1.02;;;24.80;59.30;;;;;;5069506;28;20033;-42
2021/07/09 05:55:31;;;;;;;1.73;0.80;;;24.70;58.90;;;;;;5057149;28;20096;-42
2021/07/09 05:57:57;;;;;;;3.22;0.90;;;24.60;59.30;;;;;;5067277;28;20049;-42
2021/07/09 06:00:23;;;;;;;2.97;1.17;;;24.60;59.00;;;;;;5062027;28;20056;-42
2021/07/09 06:02:49;;;;;;;3.03;1.10;;;24.60;58.90;;;;;;5070187;28;20667;-42
2021/07/09 06:05:15;;;;;;;2.22;1.08;;;24.60;59.00;;;;;;5059809;28;20025;-42
2021/07/09 06:07:41;;;;;;;4.65;0.95;;;24.60;59.10;;;;;;5060813;28;20095;-43
2021/07/09 06:10:08;;;;;;;2.90;0.90;;;24.60;59.00;;;;;;5058087;28;20135;-42
2021/07/09 06:12:33;;;;;;;1.92;0.70;;;24.60;59.00;;;;;;5070336;28;20477;-43
2021/07/09 06:15:00;;;;;;;6.15;1.40;;;24.60;58.80;;;;;;5071912;28;20044;-49
2021/07/09 06:17:27;;;;;;;7.55;1.50;;;24.70;58.50;;;;;;5067506;28;20028;-54
2021/07/09 06:19:53;;;;;;;7.32;1.38;;;24.60;58.60;;;;;;5069996;28;20033;-44
2021/07/09 06:22:19;;;;;;;3.45;1.05;;;24.60;58.80;;;;;;5070246;28;20481;-42
2021/07/09 06:24:44;;;;;;;2.92;1.10;;;24.60;58.80;;;;;;5071161;28;20050;-43
2021/07/09 06:27:10;;;;;;;3.28;1.33;;;24.60;58.50;;;;;;5072311;28;20029;-42
2021/07/09 06:29:36;;;;;;;1.67;0.98;;;24.50;58.70;;;;;;5068844;28;21426;-42
2021/07/09 06:32:02;;;;;;;4.75;1.23;;;24.60;58.80;;;;;;5068646;28;20111;-41
2021/07/09 06:34:27;;;;;;;3.25;1.30;;;24.70;58.70;;;;;;5070343;28;20021;-54
2021/07/09 06:36:53;;;;;;;6.75;1.10;;;24.80;58.60;;;;;;5071064;28;20024;-41
2021/07/09 06:39:19;;;;;;;4.97;1.45;;;24.60;58.50;;;;;;5069753;28;20059;-45
2021/07/09 06:41:44;;;;;;;3.80;1.23;;;24.70;58.60;;;;;;5067710;28;20032;-41
2021/07/09 06:44:10;;;;;;;3.22;1.38;;;24.50;58.80;;;;;;5068477;28;20033;-42
2021/07/09 06:46:35;;;;;;;2.28;1.00;;;24.50;58.90;;;;;;5065508;28;20028;-42
2021/07/09 06:49:01;;;;;;;4.30;1.10;;;24.60;58.70;;;;;;5068139;28;20485;-43
2021/07/09 06:51:27;;;;;;;5.25;1.17;;;24.80;58.60;;;;;;5070300;28;20029;-54
2021/07/09 06:53:53;;;;;;;4.82;1.00;;;24.90;58.30;;;;;;5070173;28;20024;-41
2021/07/09 06:56:18;;;;;;;4.68;1.30;;;24.80;58.10;;;;;;5068135;28;20115;-41
2021/07/09 06:58:44;;;;;;;3.22;1.50;;;24.70;58.30;;;;;;5068371;28;20033;-44
2021/07/09 07:01:10;;;;;;;4.28;1.30;;;24.70;58.40;;;;;;5028392;28;1208992;-43
2021/07/09 07:03:36;;;;;;;2.70;1.20;;;24.80;58.30;;;;;;5069180;28;20027;-41
2021/07/09 07:06:02;;;;;;;2.10;1.15;;;24.90;58.20;;;;;;5072258;28;20571;-42
2021/07/09 07:08:27;;;;;;;16.83;2.28;;;24.80;58.20;;;;;;5070995;28;20040;-48
2021/07/09 07:10:55;;;;;;;2.38;1.13;;;24.70;58.60;;;;;;5070009;28;20024;-42
2021/07/09 07:13:22;;;;;;;3.40;1.23;;;24.80;58.40;;;;;;5071706;28;20072;-42
2021/07/09 07:15:48;;;;;;;3.03;1.15;;;24.90;58.20;;;;;;5068473;28;20025;-52
2021/07/09 07:18:14;;;;;;;3.35;1.48;;;24.90;58.10;;;;;;5069556;28;20474;-41
2021/07/09 07:20:42;;;;;;;2.97;1.13;;;25.00;58.10;;;;;;5068761;28;20420;-42
2021/07/09 07:23:12;;;;;;;2.45;1.25;;;25.10;58.00;;;;;;5071420;28;20024;-41
2021/07/09 07:25:39;;;;;;;1.52;1.20;;;25.10;57.80;;;;;;5067592;28;21444;-41
2021/07/09 07:28:06;;;;;;;5.28;1.08;;;25.00;58.00;;;;;;5068469;28;20161;-42
2021/07/09 07:30:33;;;;;;;1.92;1.20;;;25.00;58.20;;;;;;5066773;28;20048;-54
2021/07/09 07:32:59;;;;;;;3.45;1.17;;;25.00;58.30;;;;;;5070112;28;20060;-43
2021/07/09 07:35:24;;;;;;;12.93;1.75;;;24.90;58.40;;;;;;5070037;28;20485;-51
2021/07/09 07:37:51;;;;;;;2.67;1.10;;;24.90;58.50;;;;;;5068303;28;20478;-44
2021/07/09 07:40:18;;;;;;;4.00;1.67;;;24.80;58.60;;;;;;5070818;28;20025;-42
2021/07/09 07:42:44;;;;;;;1.85;1.17;;;24.80;58.80;;;;;;5067196;28;20550;-42
2021/07/09 07:45:10;;;;;;;2.78;1.08;;;24.80;59.10;;;;;;5051733;28;20354;-42
2021/07/09 07:47:36;;;;;;;2.40;1.27;;;24.70;59.10;;;;;;5068568;28;20029;-42
2021/07/09 07:50:03;;;;;;;5.90;1.80;;;24.60;59.40;;;;;;5067210;28;20032;-45
2021/07/09 07:52:28;;;;;;;4.32;1.10;;;24.50;59.60;;;;;;5068249;28;20493;-42
2021/07/09 07:54:54;;;;;;;3.10;1.38;;;24.40;60.10;;;;;;5068386;28;20029;-42
2021/07/09 07:57:20;;;;;;;3.42;1.10;;;24.40;60.20;;;;;;5060662;28;20040;-41
2021/07/09 07:59:46;;;;;;;4.70;1.30;;;24.50;60.20;;;;;;5064349;28;20123;-42
2021/07/09 08:02:11;;;;;;;10.25;1.88;;;24.50;60.10;;;;;;5069952;28;20040;-43
2021/07/09 08:04:38;;;;;;;4.10;1.15;;;24.50;60.20;;;;;;5069737;28;20091;-42
2021/07/09 08:07:03;;;;;;;2.75;1.30;;;24.50;60.00;;;;;;5071524;28;20024;-42
2021/07/09 08:09:29;;;;;;;3.70;1.40;;;24.50;60.10;;;;;;5070589;28;20044;-42
2021/07/09 08:11:56;;;;;;;5.80;1.65;;;24.60;60.00;;;;;;5062540;28;20075;-41
2021/07/09 08:14:22;;;;;;;3.08;1.60;;;24.50;60.00;;;;;;5067724;28;20035;-41
2021/07/09 08:16:51;;;;;;;7.70;1.70;;;24.50;60.10;;;;;;5056146;28;20028;-44
2021/07/09 08:19:18;;;;;;;1.65;1.45;;;24.50;60.00;;;;;;5062361;28;20372;-44
2021/07/09 08:21:46;;;;;;;3.28;1.30;;;24.50;60.20;;;;;;5063411;28;20082;-42
2021/07/09 08:24:13;;;;;;;5.65;1.85;;;24.40;60.10;;;;;;5069610;28;20030;-45
2021/07/09 08:26:38;;;;;;;3.75;1.70;;;24.40;60.30;;;;;;5058454;28;20044;-42
2021/07/09 08:29:04;;;;;;;3.08;1.30;;;24.40;60.30;;;;;;5056131;28;20466;-42
2021/07/09 08:31:30;;;;;;;2.53;1.75;;;24.40;60.20;;;;;;5063851;28;20110;-42
2021/07/09 08:33:56;;;;;;;2.15;1.20;;;24.40;60.10;;;;;;5067582;28;20350;-42
2021/07/09 08:36:23;;;;;;;4.63;1.60;;;24.40;59.90;;;;;;5061094;28;20039;-41
2021/07/09 08:38:49;;;;;;;4.55;1.50;;;24.40;59.90;;;;;;5063318;28;20039;-41
2021/07/09 08:41:15;;;;;;;2.47;1.40;;;24.30;60.00;;;;;;5054892;28;20025;-42
2021/07/09 08:43:40;;;;;;;2.95;1.90;;;24.40;60.00;;;;;;5052362;28;20048;-41
2021/07/09 08:46:06;;;;;;;3.03;1.50;;;24.30;59.80;;;;;;5056774;28;20512;-42
2021/07/09 08:48:34;;;;;;;2.30;1.30;;;24.40;59.70;;;;;;5056369;28;20064;-54
2021/07/09 08:51:00;;;;;;;4.93;1.83;;;24.30;59.50;;;;;;5054560;28;20493;-49
2021/07/09 08:53:27;;;;;;;3.42;1.20;;;24.30;59.50;;;;;;5062332;28;20025;-42
2021/07/09 08:55:53;;;;;;;2.42;1.75;;;24.30;59.50;;;;;;5045915;28;20639;-42
2021/07/09 08:58:18;;;;;;;4.88;1.70;;;24.30;59.50;;;;;;5054637;28;20029;-44
2021/07/09 09:00:45;;;;;;;2.95;1.70;;;24.30;58.90;;;;;;5067758;28;20136;-42
2021/07/09 09:03:18;;;;;;;2.90;1.73;;;24.20;59.10;;;;;;5069745;28;20040;-42
2021/07/09 09:05:44;;;;;;;2.20;1.50;;;24.30;59.10;;;;;;5068763;28;20028;-42
2021/07/09 09:08:11;;;;;;;2.53;1.80;;;24.30;59.10;;;;;;5062346;28;20025;-42
2021/07/09 09:10:58;;;;;;;3.92;1.77;;;24.30;59.10;;;;;;5065886;28;20044;-53
2021/07/09 09:13:30;;;;;;;3.90;1.52;;;24.30;59.10;;;;;;5069331;28;20047;-43
2021/07/09 09:16:10;;;;;;;3.03;1.50;;;24.30;59.10;;;;;;5055368;28;20060;-40
2021/07/09 09:18:42;;;;;;;2.05;1.65;;;24.40;59.00;;;;;;5060197;28;20041;-50
2021/07/09 09:21:19;;;;;;;5.20;2.00;;;24.30;58.50;;;;;;5065028;28;20032;-42
2021/07/09 09:23:49;;;;;;;3.50;2.20;;;24.00;57.40;;;;;;5059875;28;20112;-45
2021/07/09 09:26:41;;;;;;;3.65;2.33;;;23.50;58.60;;;;;;5059005;28;20107;-42
2021/07/09 09:29:30;;;;;;;5.57;2.28;;;23.20;59.60;;;;;;5057496;28;20033;-42
2021/07/09 09:31:58;;;;;;;3.55;2.05;;;23.20;60.50;;;;;;5067514;28;20090;-47
2021/07/09 09:34:49;;;;;;;4.13;2.17;;;23.20;60.40;;;;;;5057795;28;20363;-54
2021/07/09 09:37:20;;;;;;;2.90;2.03;;;23.10;59.50;;;;;;5054280;28;20045;-43
2021/07/09 09:39:47;;;;;;;4.87;2.67;;;23.10;59.60;;;;;;5065227;28;20112;-42
2021/07/09 09:42:19;;;;;;;4.13;2.47;;;23.10;60.10;;;;;;5061396;28;20478;-43
2021/07/09 09:45:06;;;;;;;6.18;2.65;;;23.00;59.90;;;;;;5059889;28;20490;-45
2021/07/09 09:47:34;;;;;;;4.63;2.47;;;23.00;60.20;;;;;;5066043;28;20040;-54
2021/07/09 09:50:06;;;;;;;4.97;2.67;;;23.10;60.70;;;;;;5060707;28;20041;-45
2021/07/09 09:52:33;;;;;;;5.25;2.55;;;22.90;59.90;;;;;;5066637;28;20033;-43
2021/07/09 09:54:59;;;;;;;3.35;2.35;;;22.90;60.20;;;;;;5055542;28;20035;-47
2021/07/09 09:57:25;;;;;;;3.83;2.45;;;22.90;60.90;;;;;;5070671;28;20381;-42
2021/07/09 09:59:51;;;;;;;3.83;2.83;;;22.80;60.20;;;;;;5054667;28;20044;-43
2021/07/09 10:02:20;;;;;;;7.45;2.60;;;22.80;59.80;;;;;;5066144;28;20047;-43
2021/07/09 10:04:46;;;;;;;7.10;2.78;;;22.90;60.50;;;;;;5054469;28;20021;-42
2021/07/09 10:07:13;;;;;;;10.55;2.47;;;22.90;59.40;;;;;;5062914;28;20470;-43
2021/07/09 10:09:39;;;;;;;14.35;2.85;;;22.80;59.80;;;;;;5064297;28;20052;-43
2021/07/09 10:12:06;;;;;;;4.57;2.83;;;23.00;59.20;;;;;;5056160;28;20029;-42
2021/07/09 10:14:34;;;;;;;7.68;2.40;;;22.90;59.00;;;;;;5057880;28;20040;-41
2021/07/09 10:17:02;;;;;;;4.53;2.60;;;22.90;59.20;;;;;;5061180;28;20031;-43
2021/07/09 10:19:42;;;;;;;3.40;2.30;;;22.90;59.30;;;;;;5055338;28;20174;-44
2021/07/09 10:22:10;;;;;;;2.83;2.38;;;22.90;59.20;;;;;;5069382;28;20032;-44
2021/07/09 10:24:40;;;;;;;10.55;2.97;;;23.00;59.30;;;;;;5061244;28;20028;-43
2021/07/09 10:27:06;;;;;;;5.47;2.55;;;23.00;59.70;;;;;;5062620;28;20028;-44
2021/07/09 10:29:34;;;;;;;4.68;3.40;;;23.30;58.40;;;;;;5054588;28;20037;-41
2021/07/09 10:32:04;;;;;;;8.18;2.80;;;23.50;57.20;;;;;;5068772;28;20029;-40
2021/07/09 10:34:48;;;;;;;4.50;3.38;;;23.70;56.70;;;;;;5060257;28;20047;-44
2021/07/09 10:37:29;;;;;;;6.15;2.88;;;24.00;56.10;;;;;;5062075;28;20040;-51
2021/07/09 10:40:03;;;;;;;5.80;2.60;;;24.10;56.20;;;;;;5062078;28;20504;-49
2021/07/09 10:42:40;;;;;;;5.57;2.92;;;23.90;57.10;;;;;;5060403;28;20073;-44
2021/07/09 10:45:21;;;;;;;9.50;3.28;;;23.80;56.80;;;;;;5062394;28;20462;-45
2021/07/09 10:47:46;;;;;;;5.10;3.65;;;23.80;57.30;;;;;;5067251;28;20494;-45
2021/07/09 10:50:21;;;;;;;6.50;3.72;;;23.40;58.10;;;;;;5055875;28;20120;-45
2021/07/09 10:52:53;;;;;;;5.80;3.80;;;23.20;58.70;;;;;;5057541;28;20359;-45
2021/07/09 10:55:25;;;;;;;;;;;23.20;58.80;;;;;;5069898;28;20082;-45
2021/07/09 10:58:06;;;;;;;7.55;4.60;;;23.20;58.40;;;;;;5054148;28;20025;-50
2021/07/09 11:00:49;;;;;;;5.95;4.95;;;23.10;58.00;;;;;;5053666;28;20422;-45
2021/07/09 11:03:22;;;;;;;5.28;4.43;;;23.20;58.30;;;;;;5069458;28;20118;-43
2021/07/09 11:05:50;;;;;;;8.02;4.82;;;23.30;57.80;;;;;;5057098;28;20086;-44
2021/07/09 11:08:34;;;;;;;9.85;4.70;;;23.20;58.00;;;;;;5056024;28;20086;-45
2021/07/09 11:10:59;;;;;;;8.60;4.47;;;23.10;58.70;;;;;;5066989;28;20425;-46
2021/07/09 11:13:40;;;;;;;8.43;5.38;;;23.10;57.60;;;;;;5068061;28;20029;-43
2021/07/09 11:16:24;;;;;;;7.97;4.57;;;23.10;58.00;;;;;;5064642;28;20029;-44
2021/07/09 11:19:05;;;;;;;6.28;4.45;;;23.10;58.00;;;;;;5054823;28;20483;-45
2021/07/09 11:21:30;;;;;;;8.05;4.18;;;23.30;58.10;;;;;;5058063;28;20028;-46
2021/07/09 11:24:00;;;;;;;6.90;3.97;;;23.50;57.70;;;;;;5069508;28;20476;-46
2021/07/09 11:26:31;;;;;;;6.72;4.00;;;23.60;57.40;;;;;;5068051;28;20377;-46
2021/07/09 11:28:57;;;;;;;8.52;4.22;;;23.60;57.20;;;;;;5061780;28;20120;-46
2021/07/09 11:31:33;;;;;;;6.40;3.45;;;23.80;57.30;;;;;;5062886;28;20037;-45
2021/07/09 11:34:01;;;;;;;8.98;4.18;;;23.80;57.30;;;;;;5065742;28;20025;-46
2021/07/09 11:36:26;;;;;;;6.45;3.65;;;23.80;57.30;;;;;;5055961;28;20032;-46
2021/07/09 11:39:16;;;;;;;5.57;3.97;;;23.80;57.30;;;;;;5066873;28;20039;-46
2021/07/09 11:41:53;;;;;;;5.65;3.70;;;23.80;57.20;;;;;;5062267;28;20033;-46
2021/07/09 11:44:20;;;;;;;5.15;3.92;;;23.90;57.00;;;;;;5064405;28;20029;-46
2021/07/09 11:46:51;;;;;;;7.68;4.32;;;23.90;57.00;;;;;;5053124;28;20099;-47
2021/07/09 11:49:25;;;;;;;4.70;3.47;;;23.90;57.30;;;;;;5055138;28;20473;-46
2021/07/09 11:51:54;;;;;;;7.68;4.00;;;23.80;57.10;;;;;;5066340;28;20314;-47
2021/07/09 11:54:25;;;;;;;5.45;3.85;;;23.90;57.20;;;;;;5064170;28;20054;-46
2021/07/09 11:56:52;;;;;;;6.50;3.63;;;23.90;57.40;;;;;;5055212;28;20028;-48
2021/07/09 11:59:20;;;;;;;6.80;4.53;;;23.90;57.50;;;;;;5064074;28;20037;-46
2021/07/09 12:02:10;;;;;;;7.85;3.95;;;23.90;58.10;;;;;;5059582;28;20037;-48
2021/07/09 12:04:51;;;;;;;6.35;3.90;;;23.90;58.40;;;;;;5053475;28;20108;-46
2021/07/09 12:07:39;;;;;;;5.65;4.20;;;24.00;58.20;;;;;;5068956;28;20056;-48
2021/07/09 12:10:08;;;;;;;7.20;3.80;;;24.00;58.00;;;;;;5061788;28;20043;-51
2021/07/09 12:12:55;;;;;;;5.20;3.55;;;24.10;57.90;;;;;;5063734;28;20025;-48
2021/07/09 12:15:35;;;;;;;6.18;3.75;;;24.20;57.70;;;;;;5062292;28;20028;-49
2021/07/09 12:18:06;;;;;;;12.10;4.00;;;24.20;57.60;;;;;;5058871;28;20036;-49
2021/07/09 12:20:41;;;;;;;7.28;4.15;;;24.20;57.50;;;;;;5053099;28;20386;-48
2021/07/09 12:23:22;;;;;;;7.68;4.18;;;24.30;57.50;;;;;;5057874;28;20024;-47
2021/07/09 12:25:48;;;;;;;7.65;3.88;;;24.30;57.70;;;;;;5064374;28;20032;-49
2021/07/09 12:28:26;;;;;;;6.70;3.75;;;24.30;57.80;;;;;;5064565;28;20040;-47
2021/07/09 12:30:54;;;;;;;5.97;4.10;;;24.30;57.60;;;;;;5070350;28;20032;-47
2021/07/09 12:33:30;;;;;;;6.18;3.78;;;24.30;57.60;;;;;;5060689;28;20040;-47
2021/07/09 12:36:10;;;;;;;6.15;4.03;;;24.30;57.70;;;;;;5051462;28;20429;-48
2021/07/09 12:38:38;;;;;;;10.35;4.82;;;24.40;57.70;;;;;;5052851;28;20029;-47
2021/07/09 12:41:15;;;;;;;10.95;4.55;;;24.40;57.70;;;;;;5059225;28;20027;-47
2021/07/09 12:43:47;;;;;;;4.45;3.63;;;24.40;57.80;;;;;;5067830;28;20051;-59
2021/07/09 12:46:13;;;;;;;;;;;24.40;57.90;;;;;;5064614;28;20557;-46
2021/07/09 12:48:43;;;;;;;6.25;3.47;;;24.40;58.00;;;;;;5064061;28;19962;-47
2021/07/09 12:51:26;;;;;;;6.78;3.42;;;24.50;57.90;;;;;;5059529;28;20489;-48
2021/07/09 12:53:57;;;;;;;4.38;3.17;;;24.60;57.60;;;;;;5054755;28;20099;-47